Архив погоды в Велиже

Метеограмма Велиж
Пятница, 19 Октября
Время местн. Темп Ветер Видим Явления Облачность нижн/средн/верх Атм. давл. Влжн Точка росы ВНГО R Сост. почвы Tg s
Напр Скр Прв ур.ст ур.м изм
15:00 +10.5° С 2 - 15 км ливневый дождь {туман} облачно 750 765 +0.5 95% +9.7° 1 км - - - -
12:00 +11.8° С-З 2 - 15 км облака развиваются {туман} облачно 749 764 +0.8 93% +10.7° - - - - -
09:00 +4.5° штиль 0 - 0.2 км туман усиливается, небо видно ясно 749 764 +0.5 99% +4.3° более 2.5 км 0 Влажная (без луж) - -
06:00 +1.6° штиль 0 - 0.6 км туман усиливается, небо видно ясно 748 764 -0.5 99% +1.4° более 2.5 км - - - -
03:00 +4.6° Ю 1 - 4 км дымка ясно 749 764 -0.5 99% +4.4° более 2.5 км - - - -
00:00 +6° штиль 0 - 9 км дымка ясно 749 765 -0.5 99% +5.8° более 2.5 км - - - -
Четверг, 18 Октября
Время местн. Темп Ветер Видим Явления Облачность нижн/средн/верх Атм. давл. Влжн Точка росы ВНГО R Сост. почвы Tg s
Напр Скр Прв ур.ст ур.м изм
21:00 +9.3° штиль 0 - 16 км - ясно 750 765 -0.5 95% +8.6° более 2.5 км 0 - - -
18:00 +15.3° Ю 1 - 18 км - ясно 750 765 -1 71% +10° более 2.5 км - - - -
15:00 +19.8° Ю,Ю-З 2 - 20 км небо без изменений {туман} ясно 751 766 -1.5 57% +11° более 2.5 км - - - -
12:00 +15.4° Ю 1 - 15 км небо без изменений {туман} ясно 753 768 -0.5 67% +9.2° более 2.5 км - - - -
09:00 -0.3° штиль 0 - 0.3 км туман усиливается, небо видно ясно 753 769 -0.2 98% -0.6° более 2.5 км 0 Влажная (без луж) - -
06:00 -1.5° штиль 0 - 6 км дымка ясно 753 769 -0.4 98% -1.8° более 2.5 км - - - -
03:00 -0.4° штиль 0 - 2.8 км дымка ясно 754 770 -0.3 98% -0.7° более 2.5 км - - - -
00:00 +0.5° штиль 0 - 2.5 км дымка ясно 754 770 +0.1 98% +0.2° более 2.5 км - - - -
Среда, 17 Октября
Время местн. Темп Ветер Видим Явления Облачность нижн/средн/верх Атм. давл. Влжн Точка росы ВНГО R Сост. почвы Tg s
Напр Скр Прв ур.ст ур.м изм
21:00 +4.4° штиль 0 - 15 км - ясно 754 770 +0.1 97% +4° более 2.5 км 0 - - -
18:00 +13.8° Ю 1 - 18 км - ясно 754 769 -0.3 63% +7° более 2.5 км - - - -
15:00 +19.7° Ю 1 - 20 км - ясно 755 769 -0.4 51% +9.2° более 2.5 км - - - -
12:00 +15° Ю 1 - 20 км - ясно 755 770 +0.2 66% +8.6° более 2.5 км - - - -
09:00 штиль 0 - 9 км дымка ясно 755 771 +0.3 98% -0.3° более 2.5 км 0 Замерзшая - -
06:00 -1.1° штиль 0 - 9 км дымка ясно 755 770 +0.1 97% -1.5° более 2.5 км - - - -
03:00 С,С-В 1 - 6 км дымка ясно 755 770 0 97% -0.4° более 2.5 км - - - -
00:00 +1.9° штиль 0 - 12 км - ясно 755 770 +0.2 96% +1.4° более 2.5 км - - - -
Вторник, 16 Октября
Время местн. Темп Ветер Видим Явления Облачность нижн/средн/верх Атм. давл. Влжн Точка росы ВНГО R Сост. почвы Tg s
Напр Скр Прв ур.ст ур.м изм
21:00 +5.6° штиль 0 - 15 км - ясно 754 770 +0.1 89% +3.9° более 2.5 км 0 - - -
18:00 +14.4° Ю 1 - 20 км - ясно 754 769 -0.2 55% +5.5° более 2.5 км - - - -
15:00 +19.3° Ю 2 - 23 км - ясно 755 769 -0.5 43% +6.5° более 2.5 км - - - -
12:00 +15° Ю 2 - 20 км - переменная облачность 755 770 -0.2 56% +6.2° более 2.5 км - - - -